createdAt,value
2022-11-09T00:01:12.332Z,2.25
2022-11-09T00:03:38.800Z,2.17
2022-11-09T00:06:05.287Z,3.15
2022-11-09T00:08:31.871Z,3.45
2022-11-09T00:11:06.056Z,2.83
2022-11-09T00:13:36.176Z,1.27
2022-11-09T00:18:29.608Z,1.85
2022-11-09T00:20:56.308Z,4.80
2022-11-09T00:23:23.306Z,3.60
2022-11-09T00:25:49.936Z,3.40
2022-11-09T00:28:16.455Z,2.75
2022-11-09T00:30:42.959Z,1.90
2022-11-09T00:33:09.462Z,2.95
2022-11-09T00:35:38.380Z,2.03
2022-11-09T00:38:04.970Z,1.83
2022-11-09T00:40:31.452Z,3.65
2022-11-09T00:42:58.007Z,3.17
2022-11-09T00:45:24.556Z,4.00
2022-11-09T00:47:52.173Z,7.43
2022-11-09T00:50:18.791Z,2.25
2022-11-09T00:52:45.483Z,2.25
2022-11-09T00:55:12.028Z,4.60
2022-11-09T00:57:38.526Z,4.40
2022-11-09T01:00:05.916Z,2.42
2022-11-09T01:02:32.624Z,3.53
2022-11-09T01:04:59.159Z,2.45
2022-11-09T01:07:25.780Z,4.10
2022-11-09T01:09:52.256Z,7.80
2022-11-09T01:12:20.596Z,4.63
2022-11-09T01:14:47.212Z,4.30
2022-11-09T01:17:13.695Z,5.32
2022-11-09T01:19:40.526Z,5.25
2022-11-09T01:22:07.034Z,3.72
2022-11-09T01:24:33.534Z,3.17
2022-11-09T01:26:59.996Z,3.38
2022-11-09T01:29:26.460Z,3.25
2022-11-09T01:31:55.116Z,1.75
2022-11-09T01:34:21.852Z,2.95
2022-11-09T01:36:51.830Z,3.50
2022-11-09T01:39:19.011Z,4.03
2022-11-09T01:41:46.160Z,3.28
2022-11-09T01:44:14.040Z,4.32
2022-11-09T01:46:45.580Z,3.47
2022-11-09T01:49:42.220Z,2.58
2022-11-09T01:52:22.292Z,2.50
2022-11-09T01:54:53.636Z,2.63
2022-11-09T01:57:24.839Z,3.75
2022-11-09T01:59:56.187Z,1.90
2022-11-09T02:02:23.014Z,3.92
2022-11-09T02:04:54.521Z,2.88
2022-11-09T02:07:22.051Z,2.53
2022-11-09T02:10:04.637Z,2.20
2022-11-09T02:12:33.590Z,4.53
2022-11-09T02:15:02.339Z,3.95
2022-11-09T02:17:29.437Z,6.30
2022-11-09T02:19:59.244Z,3.50
2022-11-09T02:22:26.179Z,4.18
2022-11-09T02:24:56.284Z,2.20
2022-11-09T02:27:23.413Z,4.93
2022-11-09T02:29:50.223Z,3.28
2022-11-09T02:32:21.089Z,4.88
2022-11-09T02:34:47.563Z,3.35
2022-11-09T02:37:25.838Z,4.30
2022-11-09T02:39:52.335Z,6.57
2022-11-09T02:42:21.719Z,3.00
2022-11-09T02:44:52.647Z,2.50
2022-11-09T02:47:21.425Z,3.03
2022-11-09T02:49:48.150Z,3.97
2022-11-09T02:52:14.641Z,4.68
2022-11-09T02:54:44.694Z,3.58
2022-11-09T02:57:11.380Z,4.53
2022-11-09T02:59:37.858Z,3.50
2022-11-09T03:02:04.329Z,2.70
2022-11-09T03:04:30.789Z,2.13
2022-11-09T03:06:57.358Z,4.05
2022-11-09T03:09:24.050Z,4.30
2022-11-09T03:11:50.490Z,3.00
2022-11-09T03:14:17.211Z,3.08
2022-11-09T03:16:49.126Z,4.18
2022-11-09T03:19:16.877Z,3.40
2022-11-09T03:21:43.360Z,3.58
2022-11-09T03:24:09.907Z,3.92
2022-11-09T03:26:36.466Z,2.58
2022-11-09T03:29:02.981Z,3.58
2022-11-09T03:31:29.491Z,2.83
2022-11-09T03:33:55.986Z,5.78
2022-11-09T03:36:22.466Z,8.65
2022-11-09T03:38:48.969Z,4.30
2022-11-09T03:41:15.446Z,4.88
2022-11-09T03:43:41.929Z,2.60
2022-11-09T03:46:08.430Z,2.88
2022-11-09T03:48:34.887Z,6.50
2022-11-09T03:51:01.419Z,6.10
2022-11-09T03:53:27.999Z,4.97
2022-11-09T03:55:57.591Z,3.80
2022-11-09T03:58:24.108Z,3.72
2022-11-09T04:00:50.625Z,5.57
2022-11-09T04:03:17.364Z,4.10
2022-11-09T04:05:43.988Z,4.40
2022-11-09T04:08:10.433Z,4.50
2022-11-09T04:10:36.979Z,4.93
2022-11-09T04:13:19.495Z,12.30
2022-11-09T04:15:46.141Z,7.20
2022-11-09T04:18:14.390Z,4.05
2022-11-09T04:20:40.990Z,5.90
2022-11-09T04:23:09.784Z,5.80
2022-11-09T04:25:37.671Z,4.28
2022-11-09T04:28:05.829Z,4.47
2022-11-09T04:30:33.847Z,5.03
2022-11-09T04:33:00.943Z,3.72
2022-11-09T04:35:29.047Z,4.20
2022-11-09T04:38:00.407Z,5.95
2022-11-09T04:40:28.496Z,10.60
2022-11-09T04:42:54.977Z,4.93
2022-11-09T04:45:23.993Z,5.00
2022-11-09T04:47:50.512Z,3.75
2022-11-09T04:50:17.081Z,3.47
2022-11-09T04:52:43.675Z,5.47
2022-11-09T04:55:10.174Z,5.68
2022-11-09T04:57:36.638Z,3.97
2022-11-09T05:00:04.454Z,5.40
2022-11-09T05:02:31.051Z,6.68
2022-11-09T05:04:57.560Z,5.22
2022-11-09T05:07:24.056Z,6.75
2022-11-09T05:09:53.344Z,7.28
2022-11-09T05:12:19.896Z,8.60
2022-11-09T05:14:46.476Z,4.60
2022-11-09T05:17:12.962Z,5.22
2022-11-09T05:19:39.435Z,6.93
2022-11-09T05:22:05.919Z,4.70
2022-11-09T05:24:32.438Z,12.75
2022-11-09T05:26:59.011Z,7.10
2022-11-09T05:29:25.490Z,7.38
2022-11-09T05:31:52.560Z,5.35
2022-11-09T05:34:19.431Z,8.65
2022-11-09T05:36:46.005Z,4.45
2022-11-09T05:39:12.494Z,5.82
2022-11-09T05:41:38.966Z,6.70
2022-11-09T05:44:05.441Z,6.93
2022-11-09T05:46:32.047Z,5.32
2022-11-09T05:48:58.524Z,4.32
2022-11-09T05:51:25.337Z,8.40
2022-11-09T05:53:51.979Z,4.60
2022-11-09T05:56:18.489Z,4.65
2022-11-09T05:58:44.976Z,8.45
2022-11-09T06:01:14.151Z,6.07
2022-11-09T06:03:41.025Z,9.05
2022-11-09T06:06:09.192Z,8.50
2022-11-09T06:08:36.246Z,5.95
2022-11-09T06:11:11.255Z,5.68
2022-11-09T06:13:37.858Z,5.57
2022-11-09T06:16:05.700Z,8.13
2022-11-09T06:18:33.732Z,6.47
2022-11-09T06:21:02.453Z,5.72
2022-11-09T06:23:29.421Z,8.02
2022-11-09T06:26:05.092Z,8.90
2022-11-09T06:28:31.609Z,10.13
2022-11-09T06:31:15.897Z,9.55
2022-11-09T06:33:42.496Z,6.45
2022-11-09T06:36:10.381Z,4.78
2022-11-09T06:38:36.930Z,4.10
2022-11-09T06:41:03.491Z,3.08
2022-11-09T06:43:30.095Z,3.85
2022-11-09T06:45:56.732Z,4.53
2022-11-09T06:48:23.599Z,3.38
2022-11-09T06:50:50.098Z,3.97
2022-11-09T06:53:18.046Z,3.70
2022-11-09T06:55:50.299Z,2.95
2022-11-09T06:58:17.714Z,4.32
2022-11-09T07:00:44.726Z,3.67
2022-11-09T07:03:15.595Z,3.22
2022-11-09T07:05:42.697Z,6.00
2022-11-09T07:08:09.248Z,4.68
2022-11-09T07:10:36.235Z,3.47
2022-11-09T07:13:02.771Z,2.78
2022-11-09T07:15:29.304Z,2.50
2022-11-09T07:18:00.174Z,4.47
2022-11-09T07:20:27.466Z,3.47
2022-11-09T07:22:53.958Z,2.08
2022-11-09T07:25:20.869Z,2.03
2022-11-09T07:27:47.621Z,3.35
2022-11-09T07:30:22.955Z,3.30
2022-11-09T07:35:36.012Z,2.72
2022-11-09T07:38:02.670Z,3.30
2022-11-09T07:40:30.501Z,1.40
2022-11-09T07:43:00.990Z,1.40
2022-11-09T07:45:28.801Z,2.75
2022-11-09T07:47:59.722Z,2.75
2022-11-09T07:50:27.368Z,2.40
2022-11-09T07:52:57.880Z,1.55
2022-11-09T07:55:25.097Z,2.90
2022-11-09T07:57:56.366Z,1.83
2022-11-09T08:00:23.942Z,2.78
2022-11-09T08:02:50.603Z,1.65
2022-11-09T08:05:17.315Z,1.83
2022-11-09T08:07:43.814Z,3.55
2022-11-09T08:10:10.624Z,2.92
2022-11-09T08:12:37.520Z,2.88
2022-11-09T08:15:05.070Z,1.60
2022-11-09T08:17:32.221Z,2.92
2022-11-09T08:19:58.972Z,3.38
2022-11-09T08:22:25.506Z,2.97
2022-11-09T08:24:51.987Z,3.50
2022-11-09T08:27:18.814Z,2.30
2022-11-09T08:29:45.380Z,2.03
2022-11-09T08:32:12.330Z,5.18
2022-11-09T08:34:38.820Z,5.43
2022-11-09T08:37:05.553Z,2.95
2022-11-09T08:39:32.086Z,2.92
2022-11-09T08:41:58.561Z,2.38
2022-11-09T08:44:25.059Z,2.90
2022-11-09T08:46:52.561Z,2.67
2022-11-09T08:49:19.047Z,3.13
2022-11-09T08:51:45.532Z,1.77
2022-11-09T08:54:12.002Z,2.78
2022-11-09T08:56:38.529Z,2.58
2022-11-09T08:59:05.026Z,1.88
2022-11-09T09:01:31.568Z,1.45
2022-11-09T09:03:58.038Z,1.83
2022-11-09T09:06:29.752Z,3.55
2022-11-09T09:08:57.476Z,2.55
2022-11-09T09:11:24.060Z,2.30
2022-11-09T09:13:50.524Z,2.13
2022-11-09T09:16:17.047Z,2.30
2022-11-09T09:18:43.569Z,3.53
2022-11-09T09:21:10.608Z,2.47
2022-11-09T09:23:37.479Z,3.60
2022-11-09T09:26:04.114Z,2.58
2022-11-09T09:28:30.686Z,3.50
2022-11-09T09:30:58.629Z,6.22
2022-11-09T09:33:25.726Z,1.48
2022-11-09T09:35:52.420Z,2.47
2022-11-09T09:38:19.218Z,1.55
2022-11-09T09:40:57.633Z,2.53
2022-11-09T09:43:27.663Z,1.42
2022-11-09T09:45:54.377Z,1.48
2022-11-09T09:48:31.604Z,2.63
2022-11-09T09:51:11.095Z,4.43
2022-11-09T09:53:44.287Z,5.25
2022-11-09T09:56:29.004Z,4.75
2022-11-09T09:59:40.034Z,6.82
2022-11-09T10:02:25.308Z,2.75
2022-11-09T10:04:59.048Z,3.88
2022-11-09T10:08:00.085Z,2.13
2022-11-09T10:11:03.436Z,4.95
2022-11-09T10:13:55.955Z,2.83
2022-11-09T10:16:39.340Z,4.53
2022-11-09T10:19:34.028Z,1.80
2022-11-09T10:22:14.454Z,4.30
2022-11-09T10:25:16.796Z,2.50
2022-11-09T10:27:54.463Z,1.70
2022-11-09T10:30:26.997Z,4.20
2022-11-09T10:33:14.455Z,5.03
2022-11-09T10:35:43.654Z,3.22
2022-11-09T10:38:15.139Z,1.85
2022-11-09T10:40:48.633Z,2.53
2022-11-09T10:43:15.373Z,5.37
2022-11-09T10:45:44.123Z,3.53
2022-11-09T10:48:13.050Z,2.97
2022-11-09T10:50:50.366Z,2.90
2022-11-09T10:53:18.937Z,4.03
2022-11-09T10:55:57.391Z,2.50
2022-11-09T10:58:37.321Z,3.00
2022-11-09T11:01:09.721Z,21.38
2022-11-09T11:03:36.659Z,6.03
2022-11-09T11:06:12.423Z,4.47
2022-11-09T11:08:47.033Z,2.50
2022-11-09T11:11:33.287Z,5.73
2022-11-09T11:14:34.197Z,1.83
2022-11-09T11:17:01.113Z,4.43
2022-11-09T11:19:40.357Z,4.25
2022-11-09T11:22:14.071Z,5.28
2022-11-09T11:24:58.930Z,3.47
2022-11-09T11:27:37.293Z,4.13
2022-11-09T11:30:13.149Z,3.17
2022-11-09T11:32:41.329Z,9.30
2022-11-09T11:35:16.870Z,2.30
2022-11-09T11:37:47.052Z,5.32
2022-11-09T11:43:06.126Z,1.60
2022-11-09T11:45:41.549Z,3.40
2022-11-09T11:48:27.248Z,2.65
2022-11-09T11:51:02.839Z,3.80
2022-11-09T11:53:39.372Z,8.95
2022-11-09T11:56:33.850Z,3.15
2022-11-09T11:59:32.158Z,2.90
2022-11-09T12:02:21.484Z,3.28
2022-11-09T12:04:58.599Z,2.20
2022-11-09T12:07:28.058Z,3.90
2022-11-09T12:10:11.761Z,2.08
2022-11-09T12:12:52.299Z,5.13
2022-11-09T12:15:56.468Z,2.65
2022-11-09T12:18:45.434Z,3.58
2022-11-09T12:21:32.400Z,6.25
2022-11-09T12:24:15.929Z,1.88
2022-11-09T12:27:33.240Z,2.60
2022-11-09T12:30:12.951Z,3.22
2022-11-09T12:32:55.732Z,2.35
2022-11-09T12:35:56.067Z,3.15
2022-11-09T12:38:39.793Z,3.65
2022-11-09T12:41:28.113Z,6.68
2022-11-09T12:44:14.475Z,9.32
2022-11-09T12:46:50.095Z,7.00
2022-11-09T12:49:42.921Z,5.72
2022-11-09T12:52:16.317Z,6.72
2022-11-09T12:54:47.647Z,5.20
2022-11-09T12:57:30.364Z,5.63
2022-11-09T13:00:00.952Z,4.13
2022-11-09T13:02:36.175Z,3.20
2022-11-09T13:05:08.532Z,3.42
2022-11-09T13:07:50.032Z,3.05
2022-11-09T13:10:29.462Z,4.43
2022-11-09T13:13:11.331Z,3.08
2022-11-09T13:15:39.691Z,4.55
2022-11-09T13:18:22.803Z,4.35
2022-11-09T13:20:55.872Z,4.65
2022-11-09T13:23:47.682Z,4.00
2022-11-09T13:26:32.437Z,5.32
2022-11-09T13:29:23.571Z,6.07
2022-11-09T13:32:04.570Z,6.53
2022-11-09T13:34:53.326Z,4.65
2022-11-09T13:37:38.673Z,6.75
2022-11-09T13:40:33.073Z,12.95
2022-11-09T13:43:09.588Z,8.48
2022-11-09T13:45:54.835Z,6.53
2022-11-09T13:48:32.943Z,3.63
2022-11-09T13:51:23.380Z,6.97
2022-11-09T13:54:02.816Z,7.00
2022-11-09T13:56:29.311Z,7.80
2022-11-09T13:59:07.964Z,5.65
2022-11-09T14:01:38.504Z,7.07
2022-11-09T14:04:05.275Z,5.78
2022-11-09T14:06:35.257Z,5.25
2022-11-09T14:09:02.935Z,4.97
2022-11-09T14:11:35.422Z,5.68
2022-11-09T14:14:33.635Z,4.47
2022-11-09T14:17:10.378Z,6.32
2022-11-09T14:19:58.167Z,4.90
2022-11-09T14:22:26.283Z,9.00
2022-11-09T14:24:52.929Z,5.07
2022-11-09T14:27:21.331Z,4.78
2022-11-09T14:29:55.848Z,5.53
2022-11-09T14:32:33.892Z,3.60
2022-11-09T14:35:32.744Z,4.80
2022-11-09T14:38:02.641Z,4.93
2022-11-09T14:40:32.657Z,5.00
2022-11-09T14:43:21.857Z,3.28
2022-11-09T14:45:53.355Z,3.20
2022-11-09T14:48:23.351Z,4.82
2022-11-09T14:50:52.541Z,5.55
2022-11-09T14:53:21.540Z,5.00
2022-11-09T14:55:53.387Z,6.15
2022-11-09T14:58:21.475Z,2.40
2022-11-09T15:01:09.457Z,6.63
2022-11-09T15:03:36.157Z,3.67
2022-11-09T15:06:05.344Z,6.50
2022-11-09T15:08:32.071Z,4.30
2022-11-09T15:10:58.622Z,5.38
2022-11-09T15:13:37.015Z,3.97
2022-11-09T15:16:05.240Z,8.48
2022-11-09T15:18:34.588Z,7.72
2022-11-09T15:21:18.928Z,19.88
2022-11-09T15:24:23.126Z,23.42
2022-11-09T15:26:50.611Z,10.30
2022-11-09T15:29:37.926Z,5.28
2022-11-09T15:32:10.525Z,5.47
2022-11-09T15:34:40.709Z,5.90
2022-11-09T15:39:45.839Z,8.27
2022-11-09T15:42:13.531Z,6.00
2022-11-09T15:44:40.039Z,7.90
2022-11-09T15:47:20.640Z,6.22
2022-11-09T15:49:47.285Z,7.22
2022-11-09T15:52:13.758Z,10.40
2022-11-09T15:54:44.062Z,8.98
2022-11-09T15:57:18.268Z,9.40
2022-11-09T15:59:48.239Z,10.50
2022-11-09T16:02:19.589Z,10.15
2022-11-09T16:04:46.132Z,9.07
2022-11-09T16:07:16.019Z,10.48
2022-11-09T16:09:43.040Z,6.55
2022-11-09T16:12:09.909Z,7.47
2022-11-09T16:14:36.706Z,5.70
2022-11-09T16:17:04.374Z,4.50
2022-11-09T16:19:30.873Z,6.20
2022-11-09T16:21:57.430Z,5.53
2022-11-09T16:24:24.051Z,4.97
2022-11-09T16:26:50.554Z,3.53
2022-11-09T16:29:17.096Z,3.17
2022-11-09T16:31:52.178Z,5.72
2022-11-09T16:34:19.199Z,4.75
2022-11-09T16:36:50.875Z,4.85
2022-11-09T16:39:17.535Z,6.88
2022-11-09T16:41:50.225Z,6.25
2022-11-09T16:44:18.723Z,9.68
2022-11-09T16:46:47.214Z,8.52
2022-11-09T16:49:13.876Z,3.25
2022-11-09T16:51:40.722Z,6.55
2022-11-09T16:54:07.195Z,9.65
2022-11-09T16:56:36.424Z,11.10
2022-11-09T16:59:03.215Z,6.55
2022-11-09T17:01:29.779Z,6.20
2022-11-09T17:03:57.433Z,7.40
2022-11-09T17:06:24.263Z,8.43
2022-11-09T17:08:50.864Z,4.85
2022-11-09T17:11:17.360Z,5.15
2022-11-09T17:13:43.851Z,6.28
2022-11-09T17:16:12.330Z,7.53
2022-11-09T17:18:38.902Z,6.88
2022-11-09T17:21:12.839Z,7.32
2022-11-09T17:23:39.319Z,7.72
2022-11-09T17:26:07.701Z,6.38
2022-11-09T17:28:38.755Z,8.00
2022-11-09T17:31:08.973Z,9.20
2022-11-09T17:33:35.582Z,7.60
2022-11-09T17:36:04.945Z,8.20
2022-11-09T17:38:31.532Z,7.93
2022-11-09T17:41:05.185Z,7.07
2022-11-09T17:43:33.085Z,7.32
2022-11-09T17:46:10.412Z,6.78
2022-11-09T17:48:38.324Z,4.95
2022-11-09T17:51:06.224Z,5.32
2022-11-09T17:53:32.865Z,4.43
2022-11-09T17:55:59.767Z,4.07
2022-11-09T17:58:26.427Z,3.15
2022-11-09T18:00:53.204Z,1.85
2022-11-09T18:03:22.582Z,4.20
2022-11-09T18:05:49.364Z,4.78
2022-11-09T18:08:18.659Z,2.67
2022-11-09T18:10:47.920Z,6.65
2022-11-09T18:13:14.375Z,21.17
2022-11-09T18:15:40.905Z,15.32
2022-11-09T18:18:12.336Z,13.75
2022-11-09T18:20:38.852Z,7.53
2022-11-09T18:23:05.382Z,6.07
2022-11-09T18:25:31.892Z,6.22
2022-11-09T18:27:58.383Z,9.48
2022-11-09T18:30:24.932Z,3.75
2022-11-09T18:32:52.193Z,3.00
2022-11-09T18:35:18.707Z,3.22
2022-11-09T18:37:45.367Z,3.70
2022-11-09T18:40:12.058Z,3.00
2022-11-09T18:42:38.622Z,3.53
2022-11-09T18:45:05.972Z,7.93
2022-11-09T18:47:32.523Z,5.53
2022-11-09T18:49:59.040Z,13.50
2022-11-09T18:52:25.701Z,17.73
2022-11-09T18:54:52.255Z,17.65
2022-11-09T18:57:20.119Z,7.82
2022-11-09T18:59:46.766Z,7.38
2022-11-09T19:02:17.638Z,5.40
2022-11-09T19:04:46.590Z,5.45
2022-11-09T19:07:13.152Z,7.80
2022-11-09T19:09:39.751Z,6.03
2022-11-09T19:12:07.437Z,3.95
2022-11-09T19:14:35.786Z,5.55
2022-11-09T19:17:02.291Z,4.45
2022-11-09T19:19:28.796Z,3.38
2022-11-09T19:21:59.126Z,3.08
2022-11-09T19:24:26.665Z,2.13
2022-11-09T19:26:53.157Z,3.28
2022-11-09T19:29:19.644Z,3.53
2022-11-09T19:31:46.538Z,5.28
2022-11-09T19:34:15.605Z,15.55
2022-11-09T19:36:42.616Z,5.68
2022-11-09T19:39:09.882Z,4.85
2022-11-09T19:41:36.514Z,6.10
2022-11-09T19:44:03.420Z,5.88
2022-11-09T19:46:30.647Z,5.60
2022-11-09T19:48:57.382Z,5.85
2022-11-09T19:51:24.348Z,6.50
2022-11-09T19:53:52.189Z,6.90
2022-11-09T19:56:19.454Z,6.55
2022-11-09T19:58:52.635Z,5.53
2022-11-09T20:01:19.471Z,8.57
2022-11-09T20:03:54.629Z,6.25
2022-11-09T20:06:22.135Z,7.13
2022-11-09T20:08:48.797Z,6.15
2022-11-09T20:11:27.650Z,8.55
2022-11-09T20:14:04.710Z,8.10
2022-11-09T20:16:32.482Z,8.93
2022-11-09T20:19:02.538Z,7.18
2022-11-09T20:21:29.031Z,11.05
2022-11-09T20:23:55.559Z,10.75
2022-11-09T20:26:22.062Z,8.77
2022-11-09T20:28:48.840Z,8.88
2022-11-09T20:31:17.729Z,9.13
2022-11-09T20:33:44.270Z,7.78
2022-11-09T20:36:10.790Z,7.28
2022-11-09T20:38:37.554Z,10.00
2022-11-09T20:41:08.711Z,7.43
2022-11-09T20:43:36.398Z,9.98
2022-11-09T20:46:07.763Z,9.18
2022-11-09T20:51:22.993Z,19.13
2022-11-09T20:53:52.108Z,16.08
2022-11-09T20:56:19.833Z,17.38
2022-11-09T20:58:46.586Z,14.13
2022-11-09T21:01:19.555Z,18.15
2022-11-09T21:03:47.416Z,12.32
2022-11-09T21:06:14.670Z,11.75
2022-11-09T21:08:46.765Z,9.60
2022-11-09T21:11:13.600Z,7.40
2022-11-09T21:13:40.676Z,8.27
2022-11-09T21:16:13.318Z,6.03
2022-11-09T21:18:40.274Z,4.95
2022-11-09T21:21:09.460Z,5.80
2022-11-09T21:23:39.336Z,4.50
2022-11-09T21:26:08.158Z,4.18
2022-11-09T21:28:34.729Z,3.55
2022-11-09T21:31:02.060Z,3.25
2022-11-09T21:33:28.875Z,3.90
2022-11-09T21:35:55.630Z,3.92
2022-11-09T21:38:22.430Z,4.50
2022-11-09T21:40:49.888Z,3.30
2022-11-09T21:43:16.761Z,3.85
2022-11-09T21:45:43.255Z,4.45
2022-11-09T21:48:09.788Z,4.05
2022-11-09T21:50:36.257Z,3.92
2022-11-09T21:53:02.910Z,6.95
2022-11-09T21:55:30.321Z,8.68
2022-11-09T21:57:56.784Z,7.95
2022-11-09T22:00:23.317Z,5.97
2022-11-09T22:02:50.692Z,5.40
2022-11-09T22:05:22.659Z,5.13
2022-11-09T22:07:49.527Z,8.30
2022-11-09T22:10:16.214Z,4.32
2022-11-09T22:12:42.713Z,6.00
2022-11-09T22:15:10.322Z,4.43
2022-11-09T22:17:36.900Z,3.70
2022-11-09T22:20:03.626Z,4.80
2022-11-09T22:22:32.795Z,5.93
2022-11-09T22:24:59.472Z,3.50
2022-11-09T22:27:26.119Z,5.57
2022-11-09T22:29:52.636Z,3.35
2022-11-09T22:32:19.133Z,4.78
2022-11-09T22:34:45.698Z,4.18
2022-11-09T22:37:12.359Z,3.10
2022-11-09T22:39:41.795Z,3.30
2022-11-09T22:42:12.520Z,3.97
2022-11-09T22:44:39.005Z,5.32
2022-11-09T22:47:05.615Z,3.63
2022-11-09T22:49:34.762Z,3.95
2022-11-09T22:52:01.244Z,4.90
2022-11-09T22:54:27.894Z,6.45
2022-11-09T22:56:54.424Z,4.68
2022-11-09T22:59:20.921Z,6.68
2022-11-09T23:01:47.391Z,5.63
2022-11-09T23:04:13.919Z,5.80
2022-11-09T23:06:40.471Z,4.65
2022-11-09T23:09:07.055Z,3.85
2022-11-09T23:11:33.696Z,4.03
2022-11-09T23:14:00.223Z,4.30
2022-11-09T23:16:26.742Z,4.80
2022-11-09T23:18:53.281Z,4.10
2022-11-09T23:21:40.065Z,5.55
2022-11-09T23:24:07.936Z,4.07
2022-11-09T23:26:34.630Z,5.03
2022-11-09T23:29:01.252Z,5.22
2022-11-09T23:31:28.030Z,6.88
2022-11-09T23:33:57.619Z,4.95
2022-11-09T23:36:26.352Z,4.20
2022-11-09T23:38:53.235Z,5.43
2022-11-09T23:41:19.910Z,7.22
2022-11-09T23:43:49.514Z,7.53
2022-11-09T23:46:16.826Z,4.80
2022-11-09T23:48:43.361Z,6.78
2022-11-09T23:51:10.208Z,5.57
2022-11-09T23:53:36.687Z,5.20
2022-11-09T23:56:06.396Z,5.03
2022-11-09T23:58:33.513Z,6.60
